Time;durP1;ratioP1;P1;durP2;ratioP2;P2;SDS_P1;SDS_P2;PMS_P1;PMS_P2;Temp;Humidity;BMP_temperature;BMP_pressure;BME280_temperature;BME280_humidity;BME280_pressure;Samples;Min_cycle;Max_cycle;Signal;HPM_P1;HPM_P2
2021/06/14 00:00:28;;;;;;;7.87;5.67;;;15.20;99.90;;;;;;5050435;28;20208;-68
2021/06/14 00:02:54;;;;;;;7.50;5.73;;;15.20;99.90;;;;;;5046655;28;20295;-66
2021/06/14 00:05:49;;;;;;;5.87;5.27;;;15.20;99.90;;;;;;5045717;28;20657;-67
2021/06/14 00:08:20;;;;;;;6.83;5.57;;;15.10;99.90;;;;;;5043251;28;20200;-67
2021/06/14 00:10:48;;;;;;;6.77;6.07;;;15.10;99.90;;;;;;5048369;28;20660;-67
2021/06/14 00:13:14;;;;;;;6.70;5.93;;;15.10;99.90;;;;;;5053350;28;20649;-67
2021/06/14 00:15:42;;;;;;;6.20;5.60;;;15.00;99.90;;;;;;5057159;28;20613;-67
2021/06/14 00:18:09;;;;;;;7.07;6.27;;;15.00;99.90;;;;;;5028173;28;20622;-67
2021/06/14 00:20:35;;;;;;;7.07;5.73;;;15.00;99.90;;;;;;5030612;28;21172;-67
2021/06/14 00:23:03;;;;;;;6.43;5.83;;;15.00;99.90;;;;;;5025703;28;21211;-67
2021/06/14 00:25:30;;;;;;;6.50;5.90;;;14.90;99.90;;;;;;5047625;28;21346;-67
2021/06/14 00:27:56;;;;;;;8.27;5.93;;;14.90;99.90;;;;;;5047468;28;20730;-67
2021/06/14 00:30:43;;;;;;;6.23;5.73;;;14.80;99.90;;;;;;5049198;28;21067;-67
2021/06/14 00:33:10;;;;;;;6.17;5.57;;;14.80;99.90;;;;;;5041599;28;20227;-67
2021/06/14 00:35:36;;;;;;;6.70;6.10;;;14.80;99.90;;;;;;5043200;28;20626;-67
2021/06/14 00:38:02;;;;;;;6.43;5.70;;;14.80;99.90;;;;;;5047184;28;20620;-66
2021/06/14 00:40:28;;;;;;;7.10;6.13;;;14.80;99.90;;;;;;5047910;28;20636;-66
2021/06/14 00:42:54;;;;;;;7.00;6.30;;;14.80;99.90;;;;;;5042333;28;20641;-68
2021/06/14 00:45:23;;;;;;;6.40;5.90;;;14.80;99.90;;;;;;5048845;28;20687;-68
2021/06/14 00:47:50;;;;;;;6.70;6.00;;;14.80;99.90;;;;;;5046770;28;20196;-66
2021/06/14 00:50:21;;;;;;;6.90;6.20;;;14.70;99.90;;;;;;5047234;28;20730;-67
2021/06/14 00:52:46;;;;;;;7.10;6.40;;;14.70;99.90;;;;;;5041074;28;21149;-66
2021/06/14 00:55:18;;;;;;;6.57;5.97;;;14.60;99.90;;;;;;5057790;28;20665;-66
2021/06/14 00:57:43;;;;;;;6.57;5.87;;;14.60;99.90;;;;;;5045445;28;20260;-66
2021/06/14 01:00:09;;;;;;;6.20;5.47;;;14.60;99.90;;;;;;5060013;28;20855;-66
2021/06/14 01:02:35;;;;;;;6.50;5.90;;;14.60;99.90;;;;;;5045671;28;20198;-66
2021/06/14 01:05:01;;;;;;;6.47;5.57;;;14.60;99.90;;;;;;5044532;28;20654;-67
2021/06/14 01:07:27;;;;;;;6.67;5.97;;;14.60;99.90;;;;;;5046038;28;20196;-66
2021/06/14 01:09:53;;;;;;;6.70;5.83;;;14.60;99.90;;;;;;5026675;28;20771;-66
2021/06/14 01:12:26;;;;;;;6.57;5.60;;;14.60;99.90;;;;;;5049345;28;20617;-66
2021/06/14 01:15:01;;;;;;;6.03;5.43;;;14.50;99.90;;;;;;5045094;28;20220;-66
2021/06/14 01:17:44;;;;;;;6.20;5.40;;;14.40;99.90;;;;;;5042817;28;21250;-66
2021/06/14 01:20:31;;;;;;;5.70;5.20;;;14.40;99.90;;;;;;5045841;28;20650;-67
2021/06/14 01:23:34;;;;;;;6.53;5.93;;;14.40;99.90;;;;;;5044725;28;20681;-66
2021/06/14 01:26:09;;;;;;;5.80;5.30;;;14.40;99.90;;;;;;5049988;28;20956;-67
2021/06/14 01:28:36;;;;;;;6.30;5.40;;;14.30;99.90;;;;;;5028464;28;20620;-67
2021/06/14 01:31:03;;;;;;;6.03;5.50;;;14.40;99.90;;;;;;5042618;28;20648;-67
2021/06/14 01:33:31;;;;;;;6.20;5.70;;;14.30;99.90;;;;;;5050653;28;20716;-67
2021/06/14 01:36:10;;;;;;;5.87;5.27;;;14.30;99.90;;;;;;5048232;28;20784;-67
2021/06/14 01:38:39;;;;;;;6.73;5.60;;;14.30;99.90;;;;;;5048720;28;20609;-67
2021/06/14 01:41:08;;;;;;;7.17;6.47;;;14.30;99.90;;;;;;5045299;28;20641;-67
2021/06/14 01:43:37;;;;;;;6.50;5.90;;;14.30;99.90;;;;;;5051559;28;20649;-67
2021/06/14 01:46:13;;;;;;;7.43;6.73;;;14.30;99.90;;;;;;5045371;28;20638;-67
2021/06/14 01:48:41;;;;;;;7.03;6.33;;;14.20;99.90;;;;;;5049535;28;20732;-66
2021/06/14 01:51:08;;;;;;;7.07;6.37;;;14.20;99.90;;;;;;5050082;28;21703;-66
2021/06/14 01:53:35;;;;;;;6.30;5.70;;;14.20;99.90;;;;;;5046129;28;20623;-68
2021/06/14 01:56:02;;;;;;;6.07;5.50;;;14.10;99.90;;;;;;5047158;28;20622;-67
2021/06/14 01:58:30;;;;;;;6.10;5.50;;;14.20;99.90;;;;;;5049747;28;20621;-68
2021/06/14 02:00:56;;;;;;;6.30;5.70;;;14.20;99.90;;;;;;5046861;28;21239;-66
2021/06/14 02:03:23;;;;;;;6.93;6.30;;;14.10;99.90;;;;;;5046081;28;20960;-66
2021/06/14 02:05:49;;;;;;;8.13;5.67;;;14.10;99.90;;;;;;5024186;28;20685;-68
2021/06/14 02:08:17;;;;;;;6.10;5.60;;;14.10;99.90;;;;;;5048943;28;20610;-66
2021/06/14 02:10:44;;;;;;;6.23;5.63;;;14.00;99.90;;;;;;5044868;28;20648;-66
2021/06/14 02:13:11;;;;;;;7.73;6.10;;;14.10;99.90;;;;;;5047466;28;20771;-66
2021/06/14 02:15:37;;;;;;;6.10;5.50;;;14.00;99.90;;;;;;5045001;28;20620;-66
2021/06/14 02:18:03;;;;;;;6.20;5.60;;;14.00;99.90;;;;;;5047156;28;20615;-68
2021/06/14 02:20:29;;;;;;;6.80;6.10;;;14.00;99.90;;;;;;5044748;28;20199;-68
2021/06/14 02:22:55;;;;;;;5.97;5.37;;;14.00;99.90;;;;;;5042177;28;21719;-66
2021/06/14 02:25:21;;;;;;;6.63;5.70;;;14.00;99.90;;;;;;5043684;28;21786;-67
2021/06/14 02:27:47;;;;;;;6.43;5.83;;;14.00;99.90;;;;;;5042008;28;20624;-67
2021/06/14 02:30:22;;;;;;;6.63;5.53;;;13.90;99.90;;;;;;5044262;28;20666;-67
2021/06/14 02:32:49;;;;;;;7.10;6.10;;;13.90;99.90;;;;;;5025556;28;20625;-67
2021/06/14 02:35:15;;;;;;;5.80;5.20;;;13.90;99.90;;;;;;5044551;28;21057;-67
2021/06/14 02:37:45;;;;;;;6.90;6.00;;;13.90;99.90;;;;;;5024438;28;21226;-67
2021/06/14 02:40:12;;;;;;;5.60;5.10;;;13.90;99.90;;;;;;5039557;28;20652;-67
2021/06/14 02:42:39;;;;;;;7.03;6.27;;;13.90;99.90;;;;;;5049525;28;20672;-67
2021/06/14 02:45:06;;;;;;;7.00;6.30;;;13.90;99.90;;;;;;5047665;28;20649;-67
2021/06/14 02:47:34;;;;;;;7.13;5.37;;;13.90;99.90;;;;;;5045031;28;21771;-67
2021/06/14 02:50:05;;;;;;;6.10;5.30;;;13.90;99.90;;;;;;5041619;28;20683;-67
2021/06/14 02:52:33;;;;;;;6.43;5.27;;;13.90;99.90;;;;;;5039701;28;20622;-67
2021/06/14 02:55:04;;;;;;;7.10;5.73;;;13.80;99.90;;;;;;5037891;28;20645;-67
2021/06/14 02:57:31;;;;;;;6.17;5.53;;;13.80;99.90;;;;;;5041537;28;20724;-67
2021/06/14 02:59:58;;;;;;;6.10;5.60;;;13.80;99.90;;;;;;5049629;28;21314;-68
2021/06/14 03:02:26;;;;;;;6.53;6.00;;;13.80;99.90;;;;;;5054838;28;20623;-68
2021/06/14 03:04:52;;;;;;;5.87;5.37;;;13.80;99.90;;;;;;5027742;28;20670;-67
2021/06/14 03:07:23;;;;;;;6.57;5.97;;;13.80;99.90;;;;;;5040477;28;20627;-67
2021/06/14 03:09:50;;;;;;;6.50;5.70;;;13.80;99.90;;;;;;5043436;28;20728;-66
2021/06/14 03:12:17;;;;;;;5.97;5.30;;;13.80;99.90;;;;;;5045959;28;21339;-67
2021/06/14 03:14:45;;;;;;;6.23;5.63;;;13.80;99.90;;;;;;5044933;28;20660;-67
2021/06/14 03:17:12;;;;;;;6.80;6.20;;;13.80;99.90;;;;;;5030431;28;20626;-67
2021/06/14 03:19:39;;;;;;;6.07;5.47;;;13.80;99.90;;;;;;5050438;28;21150;-67
2021/06/14 03:22:08;;;;;;;6.30;5.70;;;13.70;99.90;;;;;;5029752;28;21128;-67
2021/06/14 03:24:34;;;;;;;5.90;5.40;;;13.80;99.90;;;;;;5051523;28;20645;-67
2021/06/14 03:27:00;;;;;;;6.73;5.87;;;13.80;99.90;;;;;;5048072;28;20633;-67
2021/06/14 03:29:27;;;;;;;5.80;5.30;;;13.80;99.90;;;;;;5047283;28;20196;-67
2021/06/14 03:31:54;;;;;;;6.57;5.87;;;13.80;99.90;;;;;;5049474;28;20712;-67
2021/06/14 03:34:21;;;;;;;5.67;5.17;;;13.80;99.90;;;;;;5045377;28;20725;-67
2021/06/14 03:36:48;;;;;;;6.07;5.47;;;13.80;99.90;;;;;;5048209;28;20622;-67
2021/06/14 03:39:17;;;;;;;5.90;5.40;;;13.80;99.90;;;;;;5046847;28;20714;-67
2021/06/14 03:41:44;;;;;;;6.13;5.53;;;13.80;99.90;;;;;;5045652;28;20680;-67
2021/06/14 03:44:10;;;;;;;6.43;5.83;;;13.90;99.90;;;;;;5052301;28;20703;-67
2021/06/14 03:46:37;;;;;;;7.17;6.27;;;13.80;99.90;;;;;;5034893;28;20613;-67
2021/06/14 03:49:03;;;;;;;6.20;5.70;;;13.80;99.90;;;;;;5044627;28;20258;-67
2021/06/14 03:51:30;;;;;;;6.10;5.50;;;13.80;99.90;;;;;;5035008;28;21146;-67
2021/06/14 03:53:59;;;;;;;6.10;5.50;;;13.80;99.90;;;;;;5044875;28;20644;-66
2021/06/14 03:56:31;;;;;;;5.63;5.07;;;13.90;99.90;;;;;;5032319;28;20626;-67
2021/06/14 03:58:57;;;;;;;6.10;5.47;;;13.80;99.90;;;;;;5047526;28;20605;-67
2021/06/14 04:01:23;;;;;;;5.60;5.10;;;13.90;99.90;;;;;;5054079;28;20698;-67
2021/06/14 04:04:17;;;;;;;5.50;5.10;;;13.90;99.90;;;;;;5042425;28;20657;-67
2021/06/14 04:06:42;;;;;;;6.17;5.60;;;13.90;99.90;;;;;;5043671;28;21204;-67
2021/06/14 04:09:09;;;;;;;6.70;6.10;;;14.00;99.90;;;;;;5032077;28;20617;-67
2021/06/14 04:11:35;;;;;;;6.33;5.70;;;14.00;99.90;;;;;;5047930;28;20338;-67
2021/06/14 04:14:00;;;;;;;6.20;5.70;;;14.00;99.90;;;;;;5031044;28;20803;-67
2021/06/14 04:16:26;;;;;;;5.47;5.00;;;14.00;99.90;;;;;;5048168;28;20270;-67
2021/06/14 04:18:51;;;;;;;6.13;5.53;;;14.10;99.90;;;;;;5049203;28;20265;-67
2021/06/14 04:21:17;;;;;;;6.10;5.50;;;14.10;99.90;;;;;;5053413;28;20286;-67
2021/06/14 04:23:43;;;;;;;6.90;5.90;;;14.10;99.90;;;;;;5043258;28;20350;-67
2021/06/14 04:26:09;;;;;;;5.70;5.20;;;14.10;99.90;;;;;;5029305;28;20288;-67
2021/06/14 04:28:35;;;;;;;5.73;5.23;;;14.10;99.90;;;;;;5051413;28;20613;-67
2021/06/14 04:31:01;;;;;;;6.43;5.90;;;14.20;99.90;;;;;;5052032;28;20657;-67
2021/06/14 04:33:26;;;;;;;6.73;6.20;;;14.20;99.90;;;;;;5051961;28;20216;-67
2021/06/14 04:35:52;;;;;;;6.20;5.60;;;14.20;99.90;;;;;;5050273;28;20237;-67
2021/06/14 04:38:18;;;;;;;6.13;5.57;;;14.30;99.90;;;;;;5050086;28;20263;-67
2021/06/14 04:40:43;;;;;;;7.67;6.87;;;14.30;99.90;;;;;;5035834;28;20306;-67
2021/06/14 04:43:09;;;;;;;6.70;5.97;;;14.30;99.90;;;;;;5051127;28;20306;-67
2021/06/14 04:45:34;;;;;;;7.20;6.50;;;14.30;99.90;;;;;;5037010;28;20187;-67
2021/06/14 04:48:00;;;;;;;6.77;6.07;;;14.40;99.90;;;;;;5050429;28;20558;-69
2021/06/14 04:50:25;;;;;;;7.70;6.70;;;14.50;99.90;;;;;;5055227;28;20271;-67
2021/06/14 04:52:51;;;;;;;7.50;6.80;;;14.50;99.90;;;;;;5067029;28;20293;-67
2021/06/14 04:55:17;;;;;;;9.10;6.40;;;14.60;99.90;;;;;;5039551;28;20192;-68
2021/06/14 04:57:42;;;;;;;7.93;7.13;;;14.70;99.90;;;;;;5036948;28;20644;-67
2021/06/14 05:00:09;;;;;;;7.23;6.53;;;14.70;99.90;;;;;;5050559;28;20294;-68
2021/06/14 05:02:35;;;;;;;10.83;8.40;;;14.70;99.90;;;;;;5052787;28;20226;-67
2021/06/14 05:05:01;;;;;;;11.17;7.70;;;14.80;99.90;;;;;;5012171;28;20780;-67
2021/06/14 05:07:27;;;;;;;8.70;7.50;;;14.90;99.90;;;;;;5041184;28;20655;-67
2021/06/14 05:09:55;;;;;;;7.70;7.00;;;15.10;99.90;;;;;;5051234;28;20646;-67
2021/06/14 05:12:21;;;;;;;7.40;6.70;;;15.10;99.90;;;;;;5047790;28;20191;-67
2021/06/14 05:14:46;;;;;;;10.20;7.77;;;15.20;99.90;;;;;;5043073;28;20973;-68
2021/06/14 05:17:12;;;;;;;8.27;7.47;;;15.30;99.90;;;;;;5043233;28;20188;-67
2021/06/14 05:19:38;;;;;;;9.47;7.83;;;15.40;99.90;;;;;;5044949;28;20775;-68
2021/06/14 05:22:04;;;;;;;8.40;7.50;;;15.50;99.90;;;;;;5046279;28;20187;-66
2021/06/14 05:24:31;;;;;;;7.03;6.43;;;15.60;99.90;;;;;;5039980;28;20220;-67
2021/06/14 05:26:56;;;;;;;8.97;7.20;;;15.70;99.90;;;;;;5046584;28;20616;-66
2021/06/14 05:29:22;;;;;;;6.77;6.13;;;15.80;99.90;;;;;;5045363;28;20614;-68
2021/06/14 05:31:48;;;;;;;9.40;7.50;;;15.90;99.90;;;;;;5050899;28;20204;-68
2021/06/14 05:34:13;;;;;;;9.40;6.93;;;16.00;99.90;;;;;;5042815;28;20291;-68
2021/06/14 05:36:39;;;;;;;8.00;7.20;;;16.10;99.90;;;;;;5042631;28;21214;-67
2021/06/14 05:39:05;;;;;;;7.37;6.60;;;16.20;99.90;;;;;;5037354;28;20200;-67
2021/06/14 05:41:31;;;;;;;9.67;7.80;;;16.30;99.90;;;;;;5046948;28;20300;-67
2021/06/14 05:43:56;;;;;;;8.03;7.20;;;16.40;99.90;;;;;;5042721;28;21259;-67
2021/06/14 05:46:22;;;;;;;7.80;7.00;;;16.50;99.90;;;;;;5050882;28;20215;-67
2021/06/14 05:48:50;;;;;;;10.30;7.33;;;16.50;99.90;;;;;;5047987;28;21099;-67
2021/06/14 05:51:15;;;;;;;8.20;6.67;;;16.60;99.90;;;;;;5062667;28;20646;-66
2021/06/14 05:53:41;;;;;;;9.73;7.10;;;16.70;99.90;;;;;;5070497;28;20716;-66
2021/06/14 05:56:07;;;;;;;7.80;6.73;;;16.90;99.90;;;;;;5059137;28;20194;-66
2021/06/14 05:58:32;;;;;;;7.63;5.80;;;16.90;99.90;;;;;;5047345;28;20198;-67
2021/06/14 06:00:58;;;;;;;8.30;6.80;;;17.00;99.90;;;;;;5057235;28;20207;-66
2021/06/14 06:03:23;;;;;;;7.53;5.70;;;17.10;99.90;;;;;;5059971;28;20216;-66
2021/06/14 06:05:49;;;;;;;7.83;5.47;;;17.20;99.90;;;;;;5040962;28;20197;-66
2021/06/14 06:08:14;;;;;;;7.53;6.63;;;17.30;99.90;;;;;;5050285;28;20632;-66
2021/06/14 06:10:40;;;;;;;6.77;5.10;;;17.40;99.90;;;;;;5027286;28;20222;-66
2021/06/14 06:13:05;;;;;;;7.10;5.40;;;17.50;99.90;;;;;;5033238;28;20534;-66
2021/06/14 06:15:34;;;;;;;8.00;4.77;;;17.60;99.90;;;;;;5050683;28;20513;-67
2021/06/14 06:17:59;;;;;;;6.00;5.40;;;17.60;99.90;;;;;;5048747;28;20199;-67
2021/06/14 06:20:25;;;;;;;5.97;4.67;;;17.70;99.90;;;;;;5053010;28;20710;-66
2021/06/14 06:22:52;;;;;;;5.93;4.37;;;17.80;99.90;;;;;;5050319;28;20233;-66
2021/06/14 06:25:20;;;;;;;5.17;4.60;;;17.90;99.90;;;;;;5050603;28;20211;-66
2021/06/14 06:27:47;;;;;;;6.53;4.70;;;18.00;99.90;;;;;;5044736;28;20617;-66
2021/06/14 06:30:15;;;;;;;5.40;4.60;;;18.00;99.90;;;;;;5045738;28;20701;-66
2021/06/14 06:32:41;;;;;;;5.47;4.60;;;18.10;99.90;;;;;;5017901;28;20633;-67
2021/06/14 06:35:07;;;;;;;7.30;5.13;;;18.20;99.90;;;;;;5045391;28;20969;-67
2021/06/14 06:37:33;;;;;;;9.80;4.90;;;18.20;99.90;;;;;;5045335;28;20293;-67
2021/06/14 06:39:59;;;;;;;6.47;4.00;;;18.40;99.90;;;;;;5047321;28;20748;-67
2021/06/14 06:42:25;;;;;;;5.13;4.63;;;18.40;99.90;;;;;;5058365;28;20913;-67
2021/06/14 06:44:51;;;;;;;7.80;4.40;;;18.50;99.90;;;;;;5048639;28;20223;-67
2021/06/14 06:47:17;;;;;;;7.50;4.50;;;18.60;99.90;;;;;;5048125;28;20183;-67
2021/06/14 06:49:42;;;;;;;6.87;4.70;;;18.60;99.90;;;;;;5047965;28;20688;-67
2021/06/14 06:52:10;;;;;;;4.37;3.97;;;18.70;99.90;;;;;;5049851;28;20492;-67
2021/06/14 06:54:35;;;;;;;6.47;3.97;;;18.70;99.90;;;;;;5054086;28;20218;-67
2021/06/14 06:57:01;;;;;;;7.07;4.50;;;18.80;99.90;;;;;;5058816;28;20679;-67
2021/06/14 06:59:27;;;;;;;4.37;3.90;;;18.90;99.90;;;;;;5062015;28;20221;-67
2021/06/14 07:01:53;;;;;;;8.20;3.90;;;18.90;99.90;;;;;;5058817;28;20191;-67
2021/06/14 07:04:18;;;;;;;7.70;4.60;;;19.10;99.90;;;;;;5038950;28;20231;-67
2021/06/14 07:06:44;;;;;;;3.77;3.40;;;19.10;99.90;;;;;;5057181;28;20613;-67
2021/06/14 07:09:11;;;;;;;5.03;3.50;;;19.10;99.90;;;;;;5043889;28;20180;-67
2021/06/14 07:11:40;;;;;;;6.97;4.90;;;19.10;99.90;;;;;;5064036;28;20782;-67
2021/06/14 07:14:06;;;;;;;4.63;4.17;;;19.20;99.90;;;;;;5051644;28;20656;-67
2021/06/14 07:16:31;;;;;;;5.10;4.03;;;19.30;99.90;;;;;;5056040;28;21804;-67
2021/06/14 07:18:57;;;;;;;5.23;4.07;;;19.30;99.90;;;;;;5064399;28;20187;-67
2021/06/14 07:21:23;;;;;;;5.00;4.00;;;19.30;99.90;;;;;;5062395;28;20203;-67
2021/06/14 07:23:49;;;;;;;6.97;3.93;;;19.40;99.90;;;;;;5060083;28;20219;-66
2021/06/14 07:26:15;;;;;;;7.00;3.80;;;19.40;99.90;;;;;;5063127;28;20614;-67
2021/06/14 07:28:41;;;;;;;4.60;4.20;;;19.50;99.90;;;;;;5045592;28;20179;-67
2021/06/14 07:31:07;;;;;;;10.40;4.40;;;19.50;99.90;;;;;;5056330;28;20648;-67
2021/06/14 07:33:35;;;;;;;5.90;4.20;;;19.60;99.90;;;;;;5063978;28;20219;-67
2021/06/14 07:36:02;;;;;;;6.03;3.97;;;19.70;99.90;;;;;;5065028;28;20610;-67
2021/06/14 07:38:28;;;;;;;5.23;3.90;;;19.90;99.90;;;;;;5063613;28;20636;-67
2021/06/14 07:40:53;;;;;;;6.20;4.20;;;19.90;99.90;;;;;;5120870;22;20706;-67
2021/06/14 07:43:21;;;;;;;6.63;4.70;;;20.00;99.90;;;;;;5019177;28;20732;-68
2021/06/14 07:45:48;;;;;;;5.50;3.80;;;20.10;99.90;;;;;;5027421;28;20287;-68
2021/06/14 07:48:14;;;;;;;6.20;4.47;;;20.20;99.90;;;;;;5022688;28;20620;-67
2021/06/14 07:50:41;;;;;;;8.00;4.53;;;20.30;99.90;;;;;;5023957;28;20685;-67
2021/06/14 07:53:07;;;;;;;6.10;4.00;;;20.30;99.90;;;;;;5014550;28;21209;-67
2021/06/14 07:55:33;;;;;;;6.60;4.90;;;20.40;99.90;;;;;;5007865;28;20704;-68
2021/06/14 07:57:59;;;;;;;6.77;4.37;;;20.50;99.90;;;;;;5026887;28;20706;-68
2021/06/14 08:00:25;;;;;;;7.83;4.70;;;20.50;99.90;;;;;;5025943;28;20800;-68
2021/06/14 08:02:51;;;;;;;6.47;4.33;;;20.60;99.90;;;;;;5005059;28;20180;-68
2021/06/14 08:05:17;;;;;;;5.93;5.00;;;20.70;99.90;;;;;;4990634;28;20648;-68
2021/06/14 08:07:43;;;;;;;7.63;5.13;;;20.80;99.90;;;;;;5003067;28;20181;-68
2021/06/14 08:10:14;;;;;;;7.80;5.27;;;20.80;99.90;;;;;;5006037;28;20643;-68
2021/06/14 08:12:45;;;;;;;5.37;4.80;;;20.90;99.90;;;;;;4999852;28;21920;-68
2021/06/14 08:15:16;;;;;;;6.47;4.60;;;20.90;99.90;;;;;;5005512;28;20631;-68
2021/06/14 08:17:42;;;;;;;8.33;4.80;;;21.00;99.90;;;;;;5004948;28;20608;-68
2021/06/14 08:25:03;;;;;;;7.23;5.03;;;21.20;99.90;;;;;;5002993;28;20193;-68
2021/06/14 08:25:25;;;;;;;6.80;4.60;;;21.20;99.90;;;;;;4997775;28;20671;-68
2021/06/14 08:27:50;;;;;;;6.67;4.60;;;21.30;99.90;;;;;;4992495;28;20962;-68
2021/06/14 08:30:19;;;;;;;6.43;4.63;;;21.40;99.90;;;;;;4996053;28;20197;-68
2021/06/14 08:32:47;;;;;;;4.93;4.30;;;21.50;99.90;;;;;;5007676;28;21079;-67
2021/06/14 08:35:16;;;;;;;5.80;4.33;;;21.50;99.90;;;;;;5003035;28;20616;-68
2021/06/14 08:37:44;;;;;;;7.47;4.93;;;21.50;99.90;;;;;;5002914;28;20619;-68
2021/06/14 08:40:12;;;;;;;5.10;4.50;;;21.70;99.90;;;;;;4998168;28;21131;-68
2021/06/14 08:42:38;;;;;;;6.30;4.90;;;21.70;99.90;;;;;;4998631;28;20639;-68
2021/06/14 08:45:06;;;;;;;8.70;4.70;;;21.80;99.90;;;;;;4998910;28;20794;-68
2021/06/14 08:47:34;;;;;;;7.00;4.60;;;21.90;99.90;;;;;;5003739;28;20608;-68
2021/06/14 08:50:04;;;;;;;4.83;4.10;;;22.00;99.90;;;;;;5000651;28;20715;-68
2021/06/14 08:52:30;;;;;;;5.13;4.53;;;22.10;99.90;;;;;;5000533;28;21190;-68
2021/06/14 08:54:55;;;;;;;6.63;4.33;;;22.20;99.90;;;;;;5004125;28;20646;-68
2021/06/14 08:57:21;;;;;;;6.70;5.00;;;22.20;99.90;;;;;;4996994;28;20267;-68
2021/06/14 08:59:49;;;;;;;4.83;4.33;;;22.30;99.90;;;;;;5003762;28;20201;-68
2021/06/14 09:02:15;;;;;;;6.07;4.80;;;22.30;99.90;;;;;;5000290;28;20530;-68
2021/06/14 09:04:41;;;;;;;7.53;4.30;;;22.40;99.90;;;;;;4997811;28;20648;-68
2021/06/14 09:07:07;;;;;;;6.67;4.60;;;22.50;99.90;;;;;;4994315;28;20259;-68
2021/06/14 09:09:33;;;;;;;5.10;4.37;;;22.60;99.90;;;;;;5001785;28;20265;-66
2021/06/14 09:12:02;;;;;;;4.73;4.10;;;22.60;99.90;;;;;;4999175;28;20612;-68
2021/06/14 09:14:30;;;;;;;5.03;4.53;;;22.70;99.90;;;;;;4996390;28;20655;-69
2021/06/14 09:17:04;;;;;;;5.80;5.07;;;22.70;99.90;;;;;;4999741;28;21310;-66
2021/06/14 09:19:31;;;;;;;7.07;5.07;;;22.80;99.90;;;;;;5007376;28;20719;-67
2021/06/14 09:22:14;;;;;;;6.00;4.43;;;22.90;99.90;;;;;;5002730;28;20993;-67
2021/06/14 09:24:52;;;;;;;7.60;4.67;;;23.00;99.90;;;;;;4986508;28;20682;-71
2021/06/14 09:27:33;;;;;;;5.93;4.53;;;23.10;99.90;;;;;;4994967;28;20607;-67
2021/06/14 09:30:13;;;;;;;4.93;4.43;;;23.20;99.90;;;;;;5003571;28;21255;-68
2021/06/14 09:33:19;;;;;;;5.97;5.00;;;23.20;99.90;;;;;;4999099;28;20703;-68
2021/06/14 09:35:45;;;;;;;6.20;4.60;;;23.30;99.90;;;;;;5001410;28;20774;-67
2021/06/14 09:38:14;;;;;;;5.50;4.50;;;23.40;99.90;;;;;;5013557;28;20638;-68
2021/06/14 09:40:53;;;;;;;5.37;4.87;;;23.50;99.90;;;;;;5017379;28;20217;-68
2021/06/14 09:43:30;;;;;;;5.77;4.40;;;23.50;99.90;;;;;;5015812;28;20651;-68
2021/06/14 09:45:59;;;;;;;7.30;5.07;;;23.50;99.90;;;;;;5017907;28;20618;-68
2021/06/14 09:48:27;;;;;;;4.90;4.50;;;23.40;99.90;;;;;;4999853;28;20620;-68
2021/06/14 09:50:54;;;;;;;6.33;4.07;;;23.50;99.90;;;;;;5018685;28;20655;-68
2021/06/14 09:53:22;;;;;;;4.97;4.43;;;23.50;99.90;;;;;;4998831;28;20635;-68
2021/06/14 09:55:50;;;;;;;6.77;5.30;;;23.50;99.90;;;;;;5015662;28;20642;-68
2021/06/14 09:58:23;;;;;;;6.80;4.60;;;23.60;99.90;;;;;;5016950;28;20624;-68
2021/06/14 10:01:03;;;;;;;5.77;4.40;;;23.70;99.90;;;;;;5020099;28;20655;-68
2021/06/14 10:03:43;;;;;;;5.53;4.03;;;23.80;99.90;;;;;;5017314;28;20650;-68
2021/06/14 10:06:09;;;;;;;4.93;4.07;;;23.80;99.90;;;;;;5017151;28;20608;-68
2021/06/14 10:08:35;;;;;;;5.77;4.37;;;23.80;99.90;;;;;;5018246;28;20670;-68
2021/06/14 10:11:10;;;;;;;5.60;4.27;;;23.80;99.90;;;;;;5002576;28;20659;-68
2021/06/14 10:13:40;;;;;;;4.30;3.90;;;24.00;99.90;;;;;;4989465;28;20674;-68
2021/06/14 10:16:15;;;;;;;7.13;4.43;;;24.00;99.90;;;;;;4990203;28;20635;-68
2021/06/14 10:18:54;;;;;;;5.20;3.90;;;24.10;99.90;;;;;;5020242;28;20726;-68
2021/06/14 10:21:29;;;;;;;4.90;4.20;;;24.20;99.90;;;;;;5021183;28;21209;-68
2021/06/14 10:23:57;;;;;;;5.87;4.60;;;24.30;99.90;;;;;;4997403;28;20973;-68
2021/06/14 10:26:24;;;;;;;5.00;4.33;;;24.40;99.90;;;;;;4988979;28;21006;-68
2021/06/14 10:28:50;;;;;;;5.47;4.73;;;24.40;99.90;;;;;;5021525;28;20643;-68
2021/06/14 10:31:17;;;;;;;5.00;4.30;;;24.50;99.90;;;;;;5002263;28;20653;-68
2021/06/14 10:33:48;;;;;;;4.60;4.03;;;24.60;99.90;;;;;;5017839;28;20697;-68
2021/06/14 10:36:14;;;;;;;6.50;4.10;;;24.70;99.90;;;;;;5000429;28;20607;-68
2021/06/14 10:38:46;;;;;;;3.93;3.63;;;24.80;99.90;;;;;;5021189;28;21201;-69
2021/06/14 10:41:12;;;;;;;5.23;3.70;;;24.80;99.90;;;;;;5011826;28;20662;-67
2021/06/14 10:43:39;;;;;;;6.47;4.17;;;24.90;99.90;;;;;;5000319;28;20651;-67
2021/06/14 10:46:05;;;;;;;4.13;3.50;;;24.90;99.90;;;;;;5018906;28;20703;-67
2021/06/14 10:48:33;;;;;;;8.10;4.20;;;25.00;99.90;;;;;;4999178;28;21305;-67
2021/06/14 10:51:00;;;;;;;4.40;3.83;;;25.00;99.90;;;;;;5014177;28;20239;-67
2021/06/14 10:53:31;;;;;;;4.23;3.60;;;25.10;99.90;;;;;;5013817;28;20630;-68
2021/06/14 10:56:00;;;;;;;4.33;4.00;;;25.20;99.90;;;;;;5009009;28;20617;-68
2021/06/14 10:58:28;;;;;;;3.73;3.43;;;25.30;99.90;;;;;;5017399;28;20635;-68
2021/06/14 11:01:07;;;;;;;5.23;3.53;;;25.40;99.90;;;;;;5013871;28;20651;-68
2021/06/14 11:03:49;;;;;;;4.50;3.70;;;25.50;99.90;;;;;;4994855;28;20631;-67
2021/06/14 11:06:35;;;;;;;4.47;3.77;;;25.50;99.90;;;;;;4998095;28;20715;-67
2021/06/14 11:09:09;;;;;;;3.97;3.67;;;25.60;99.90;;;;;;5011405;28;20612;-67
2021/06/14 11:11:44;;;;;;;5.83;4.20;;;25.60;99.90;;;;;;5015049;28;20678;-66
2021/06/14 11:14:09;;;;;;;4.47;4.00;;;25.60;99.90;;;;;;5013247;28;20634;-67
2021/06/14 11:16:39;;;;;;;4.50;4.10;;;25.70;99.90;;;;;;5011646;28;20604;-67
2021/06/14 11:19:08;;;;;;;5.03;4.10;;;25.70;99.90;;;;;;4998756;28;20197;-66
2021/06/14 11:21:34;;;;;;;4.33;3.80;;;25.80;99.90;;;;;;5013951;28;21277;-65
2021/06/14 11:24:10;;;;;;;6.27;3.80;;;25.80;99.90;;;;;;5009361;28;21222;-66
2021/06/14 11:26:36;;;;;;;3.87;3.30;;;25.80;99.90;;;;;;5012489;28;20992;-67
2021/06/14 11:29:17;;;;;;;4.17;3.73;;;25.90;99.90;;;;;;5017959;28;20661;-66
2021/06/14 11:31:56;;;;;;;7.43;3.70;;;26.10;99.90;;;;;;5001934;28;20651;-66
2021/06/14 11:34:22;;;;;;;3.93;3.50;;;26.10;99.90;;;;;;5016109;28;21707;-65
2021/06/14 11:36:56;;;;;;;4.97;4.13;;;26.20;99.90;;;;;;5011280;28;20623;-67
2021/06/14 11:39:22;;;;;;;4.00;3.70;;;26.30;99.90;;;;;;5010026;28;21828;-66
2021/06/14 11:41:47;;;;;;;4.33;3.93;;;26.40;99.90;;;;;;4988073;28;20666;-65
2021/06/14 11:44:28;;;;;;;4.60;4.20;;;26.50;99.90;;;;;;4989492;28;20654;-65
2021/06/14 11:47:18;;;;;;;4.70;3.80;;;26.40;99.90;;;;;;5027782;28;20246;-66
2021/06/14 11:49:46;;;;;;;4.43;3.60;;;26.60;99.90;;;;;;5013577;28;20738;-67
2021/06/14 11:52:22;;;;;;;4.70;3.90;;;26.70;99.90;;;;;;5029212;28;20611;-66
2021/06/14 11:54:55;;;;;;;4.33;3.93;;;26.80;99.90;;;;;;5028063;28;20667;-70
2021/06/14 11:57:44;;;;;;;4.07;3.67;;;26.90;99.90;;;;;;5025726;28;20614;-67
2021/06/14 12:00:14;;;;;;;4.67;3.57;;;27.00;99.90;;;;;;5005398;28;20670;-67
2021/06/14 12:02:39;;;;;;;4.67;3.80;;;27.10;99.90;;;;;;5026067;28;21239;-65
2021/06/14 12:05:08;;;;;;;6.27;3.90;;;27.20;99.90;;;;;;5018759;28;20774;-67
2021/06/14 12:07:38;;;;;;;4.30;3.90;;;27.40;99.90;;;;;;5014585;28;20193;-67
2021/06/14 12:10:08;;;;;;;4.00;3.70;;;27.50;99.90;;;;;;5014632;28;20647;-67
2021/06/14 12:12:33;;;;;;;3.43;3.23;;;27.50;99.90;;;;;;5013530;28;20615;-67
2021/06/14 12:14:59;;;;;;;5.70;3.50;;;27.60;99.90;;;;;;5012917;28;20643;-67
2021/06/14 12:17:41;;;;;;;4.13;3.73;;;27.70;99.90;;;;;;4991193;28;20189;-66
2021/06/14 12:20:10;;;;;;;4.00;3.70;;;27.80;99.90;;;;;;5018147;28;20267;-67
2021/06/14 12:22:37;;;;;;;3.63;3.27;;;27.80;99.90;;;;;;5017755;28;20643;-67
2021/06/14 12:25:09;;;;;;;4.10;3.70;;;27.90;99.90;;;;;;5010107;28;20651;-67
2021/06/14 12:27:34;;;;;;;4.53;3.63;;;28.00;99.90;;;;;;4998756;28;21165;-67
2021/06/14 12:30:04;;;;;;;4.53;3.90;;;28.10;99.90;;;;;;5013808;28;20647;-67
2021/06/14 12:32:34;;;;;;;3.83;3.50;;;28.20;99.90;;;;;;5016318;28;20188;-67
2021/06/14 12:35:02;;;;;;;4.37;3.97;;;28.20;99.90;;;;;;5020240;28;20660;-67
2021/06/14 12:37:28;;;;;;;3.87;3.57;;;28.30;99.90;;;;;;5012702;28;20817;-67
2021/06/14 12:39:59;;;;;;;4.20;3.50;;;28.30;99.90;;;;;;5013484;28;21097;-66
2021/06/14 12:42:25;;;;;;;4.73;3.73;;;28.30;99.90;;;;;;5011136;28;20238;-65
2021/06/14 12:45:13;;;;;;;11.97;11.13;;;28.40;99.90;;;;;;5013704;28;20693;-65
2021/06/14 12:47:44;;;;;;;9.00;8.30;;;28.50;99.90;;;;;;5015716;28;20615;-67
2021/06/14 12:50:17;;;;;;;6.47;5.50;;;28.60;99.90;;;;;;5015689;28;20631;-67
2021/06/14 12:52:43;;;;;;;4.73;4.23;;;28.70;99.90;;;;;;5017162;28;20612;-66
2021/06/14 12:55:20;;;;;;;3.67;3.37;;;28.70;99.90;;;;;;5011607;28;20631;-68